This is the latest recevied weather packets stored in our database for station/object K0CPM-2. If no packets are shown the sender has not sent any weather packets the latest 10 day(s).
| Time | Temp. | Humidity | Pressure | Rain* | Wind** | Luminosity | Snow |
|---|---|---|---|---|---|---|---|
| 1788534002 | 27.78° C | 90% | 1012.6 hPa | 0 mm | - | - | - |
| 1788533169 | 27.78° C | 92% | 1012.5 hPa | 0 mm | - | - | - |
| 1788532253 | 26.67° C | 93% | 1012.4 hPa | 0 mm | - | - | - |
| 1788531354 | 26.11° C | 93% | 1012.4 hPa | 0 mm | - | - | - |
| 1788530453 | 25.56° C | 94% | 1012.4 hPa | 0 mm | - | - | - |
| 1788529548 | 25° C | 95% | 1012.1 hPa | 0 mm | - | - | - |
| 1788528648 | 24.44° C | 95% | 1011.8 hPa | 0 mm | - | - | - |
| 1788527754 | 24.44° C | 95% | 1011.7 hPa | 0 mm | - | - | - |
| 1788526847 | 23.89° C | 95% | 1011.9 hPa | 0 mm | - | - | - |
| 1788525957 | 23.89° C | 95% | 1011.7 hPa | 1.02 mm | - | - | - |
| 1788525046 | 23.33° C | 94% | 1011.9 hPa | 8.38 mm | - | - | - |
| 1788524145 | 23.33° C | 94% | 1011.7 hPa | 13.21 mm | - | - | - |
| 1788523248 | 23.33° C | 93% | 1011.5 hPa | 12.95 mm | - | - | - |
| 1788522344 | 23.89° C | 93% | 1011.6 hPa | 11.94 mm | - | - | - |
| 1788521445 | 25° C | 89% | 1011.6 hPa | 4.83 mm | - | - | - |
| 1788520533 | 25.56° C | 86% | 1011.2 hPa | 0 mm | - | - | - |
| 1788519631 | 26.11° C | 88% | 1010.9 hPa | 0 mm | - | - | - |
| 1788518730 | 26.11° C | 92% | 1010.9 hPa | 0 mm | - | - | - |
| 1788517836 | 26.11° C | 95% | 1010.5 hPa | 0 mm | - | - | - |
| 1788516923 | 26.11° C | 94% | 1010.3 hPa | 0 mm | - | - | - |
| 1788516019 | 26.67° C | 94% | 1010.4 hPa | 0 mm | - | - | - |
| 1788515117 | 26.11° C | 94% | 1010.1 hPa | 0 mm | - | - | - |
| 1788514214 | 26.11° C | 95% | 1010.1 hPa | 0 mm | - | - | - |
| 1788513313 | 26.11° C | 95% | 1010.2 hPa | 0 mm | - | - | - |
| 1788512412 | 26.11° C | 95% | 1010.3 hPa | 0 mm | - | - | - |
* Rain latest hour (hover to see other rain measurements)
** Current wind speed in m/s (hover to see current wind gust speed)